sensor_id;sensor_type;location;lat;lon;timestamp;P1;durP1;ratioP1;P2;durP2;ratioP2
12900;SDS011;6518;50.930;5.344;2023-04-03T00:01:27;6.37;;;4.37;;
12900;SDS011;6518;50.930;5.344;2023-04-03T00:03:54;5.83;;;4.33;;
12900;SDS011;6518;50.930;5.344;2023-04-03T00:06:21;6.23;;;4.30;;
12900;SDS011;6518;50.930;5.344;2023-04-03T00:08:49;6.83;;;4.70;;
12900;SDS011;6518;50.930;5.344;2023-04-03T00:11:17;7.37;;;5.13;;
12900;SDS011;6518;50.930;5.344;2023-04-03T00:13:45;6.27;;;4.50;;
12900;SDS011;6518;50.930;5.344;2023-04-03T00:16:12;8.30;;;4.80;;
12900;SDS011;6518;50.930;5.344;2023-04-03T00:18:40;7.33;;;4.67;;
12900;SDS011;6518;50.930;5.344;2023-04-03T00:21:07;7.70;;;4.90;;
12900;SDS011;6518;50.930;5.344;2023-04-03T00:23:35;7.80;;;4.63;;
12900;SDS011;6518;50.930;5.344;2023-04-03T00:26:02;6.43;;;4.93;;
12900;SDS011;6518;50.930;5.344;2023-04-03T00:28:31;8.13;;;5.00;;
12900;SDS011;6518;50.930;5.344;2023-04-03T00:30:58;8.93;;;5.30;;
12900;SDS011;6518;50.930;5.344;2023-04-03T00:33:24;6.30;;;4.77;;
12900;SDS011;6518;50.930;5.344;2023-04-03T00:35:51;8.30;;;5.10;;
12900;SDS011;6518;50.930;5.344;2023-04-03T00:38:18;7.57;;;4.97;;
12900;SDS011;6518;50.930;5.344;2023-04-03T00:40:46;9.93;;;4.50;;
12900;SDS011;6518;50.930;5.344;2023-04-03T00:43:14;6.50;;;4.70;;
12900;SDS011;6518;50.930;5.344;2023-04-03T00:45:45;6.63;;;4.83;;
12900;SDS011;6518;50.930;5.344;2023-04-03T00:48:15;5.30;;;4.60;;
12900;SDS011;6518;50.930;5.344;2023-04-03T00:50:44;5.70;;;4.63;;
12900;SDS011;6518;50.930;5.344;2023-04-03T00:53:13;5.93;;;4.67;;
12900;SDS011;6518;50.930;5.344;2023-04-03T00:55:44;5.37;;;4.50;;
12900;SDS011;6518;50.930;5.344;2023-04-03T00:58:12;7.10;;;5.27;;
12900;SDS011;6518;50.930;5.344;2023-04-03T01:00:42;6.90;;;5.07;;
12900;SDS011;6518;50.930;5.344;2023-04-03T01:03:14;7.63;;;4.77;;
12900;SDS011;6518;50.930;5.344;2023-04-03T01:05:40;6.93;;;4.60;;
12900;SDS011;6518;50.930;5.344;2023-04-03T01:08:07;5.87;;;4.67;;
12900;SDS011;6518;50.930;5.344;2023-04-03T01:10:34;7.20;;;4.43;;
12900;SDS011;6518;50.930;5.344;2023-04-03T01:13:01;6.50;;;4.90;;
12900;SDS011;6518;50.930;5.344;2023-04-03T01:15:43;7.87;;;4.60;;
12900;SDS011;6518;50.930;5.344;2023-04-03T01:18:11;5.87;;;4.73;;
12900;SDS011;6518;50.930;5.344;2023-04-03T01:23:52;5.77;;;4.63;;
12900;SDS011;6518;50.930;5.344;2023-04-03T01:26:31;5.77;;;4.40;;
12900;SDS011;6518;50.930;5.344;2023-04-03T01:29:00;6.60;;;5.23;;
12900;SDS011;6518;50.930;5.344;2023-04-03T01:31:29;6.43;;;5.03;;
12900;SDS011;6518;50.930;5.344;2023-04-03T01:34:01;6.07;;;4.80;;
12900;SDS011;6518;50.930;5.344;2023-04-03T01:36:29;8.83;;;4.83;;
12900;SDS011;6518;50.930;5.344;2023-04-03T01:38:57;8.03;;;5.10;;
12900;SDS011;6518;50.930;5.344;2023-04-03T01:41:25;7.97;;;4.87;;
12900;SDS011;6518;50.930;5.344;2023-04-03T01:43:52;5.77;;;5.10;;
12900;SDS011;6518;50.930;5.344;2023-04-03T01:46:19;6.60;;;4.93;;
12900;SDS011;6518;50.930;5.344;2023-04-03T01:48:47;7.00;;;5.47;;
12900;SDS011;6518;50.930;5.344;2023-04-03T01:51:15;7.10;;;5.07;;
12900;SDS011;6518;50.930;5.344;2023-04-03T01:53:42;10.20;;;5.57;;
12900;SDS011;6518;50.930;5.344;2023-04-03T01:56:09;10.73;;;5.37;;
12900;SDS011;6518;50.930;5.344;2023-04-03T01:58:36;6.00;;;5.13;;
12900;SDS011;6518;50.930;5.344;2023-04-03T02:01:03;8.27;;;5.87;;
12900;SDS011;6518;50.930;5.344;2023-04-03T02:03:30;8.60;;;5.20;;
12900;SDS011;6518;50.930;5.344;2023-04-03T02:05:57;6.60;;;5.20;;
12900;SDS011;6518;50.930;5.344;2023-04-03T02:08:25;8.03;;;5.20;;
12900;SDS011;6518;50.930;5.344;2023-04-03T02:10:52;6.17;;;5.13;;
12900;SDS011;6518;50.930;5.344;2023-04-03T02:13:19;6.93;;;5.00;;
12900;SDS011;6518;50.930;5.344;2023-04-03T02:15:46;9.90;;;5.23;;
12900;SDS011;6518;50.930;5.344;2023-04-03T02:18:14;6.80;;;5.07;;
12900;SDS011;6518;50.930;5.344;2023-04-03T02:20:41;7.80;;;5.40;;
12900;SDS011;6518;50.930;5.344;2023-04-03T02:23:08;9.33;;;5.30;;
12900;SDS011;6518;50.930;5.344;2023-04-03T02:25:36;7.83;;;5.57;;
12900;SDS011;6518;50.930;5.344;2023-04-03T02:28:03;11.43;;;5.93;;
12900;SDS011;6518;50.930;5.344;2023-04-03T02:30:30;6.60;;;5.30;;
12900;SDS011;6518;50.930;5.344;2023-04-03T02:32:57;7.57;;;5.00;;
12900;SDS011;6518;50.930;5.344;2023-04-03T02:35:24;9.20;;;5.47;;
12900;SDS011;6518;50.930;5.344;2023-04-03T02:37:50;6.23;;;5.00;;
12900;SDS011;6518;50.930;5.344;2023-04-03T02:40:17;6.90;;;5.23;;
12900;SDS011;6518;50.930;5.344;2023-04-03T02:42:45;8.63;;;5.80;;
12900;SDS011;6518;50.930;5.344;2023-04-03T02:45:15;9.20;;;5.37;;
12900;SDS011;6518;50.930;5.344;2023-04-03T02:47:41;8.00;;;5.83;;
12900;SDS011;6518;50.930;5.344;2023-04-03T02:50:08;9.97;;;5.70;;
12900;SDS011;6518;50.930;5.344;2023-04-03T02:52:35;6.43;;;5.13;;
12900;SDS011;6518;50.930;5.344;2023-04-03T02:55:02;9.73;;;5.50;;
12900;SDS011;6518;50.930;5.344;2023-04-03T02:57:30;9.30;;;5.87;;
12900;SDS011;6518;50.930;5.344;2023-04-03T02:59:58;6.60;;;5.57;;
12900;SDS011;6518;50.930;5.344;2023-04-03T03:02:25;7.33;;;5.20;;
12900;SDS011;6518;50.930;5.344;2023-04-03T03:04:51;6.27;;;5.47;;
12900;SDS011;6518;50.930;5.344;2023-04-03T03:07:18;9.37;;;5.17;;
12900;SDS011;6518;50.930;5.344;2023-04-03T03:09:45;6.80;;;6.00;;
12900;SDS011;6518;50.930;5.344;2023-04-03T03:12:12;9.57;;;6.17;;
12900;SDS011;6518;50.930;5.344;2023-04-03T03:14:38;6.50;;;5.80;;
12900;SDS011;6518;50.930;5.344;2023-04-03T03:17:06;8.73;;;5.87;;
12900;SDS011;6518;50.930;5.344;2023-04-03T03:19:33;8.83;;;6.77;;
12900;SDS011;6518;50.930;5.344;2023-04-03T03:22:00;8.60;;;6.53;;
12900;SDS011;6518;50.930;5.344;2023-04-03T03:24:27;7.10;;;6.40;;
12900;SDS011;6518;50.930;5.344;2023-04-03T03:26:54;8.63;;;6.73;;
12900;SDS011;6518;50.930;5.344;2023-04-03T03:29:21;10.17;;;7.60;;
12900;SDS011;6518;50.930;5.344;2023-04-03T03:31:48;9.17;;;7.30;;
12900;SDS011;6518;50.930;5.344;2023-04-03T03:34:16;9.03;;;8.03;;
12900;SDS011;6518;50.930;5.344;2023-04-03T03:36:43;9.13;;;7.80;;
12900;SDS011;6518;50.930;5.344;2023-04-03T03:39:10;10.10;;;7.30;;
12900;SDS011;6518;50.930;5.344;2023-04-03T03:41:36;10.17;;;7.13;;
12900;SDS011;6518;50.930;5.344;2023-04-03T03:44:03;8.83;;;7.27;;
12900;SDS011;6518;50.930;5.344;2023-04-03T03:46:30;9.20;;;7.73;;
12900;SDS011;6518;50.930;5.344;2023-04-03T03:48:57;9.37;;;7.77;;
12900;SDS011;6518;50.930;5.344;2023-04-03T03:51:25;11.97;;;7.50;;
12900;SDS011;6518;50.930;5.344;2023-04-03T03:53:52;10.13;;;7.13;;
12900;SDS011;6518;50.930;5.344;2023-04-03T03:56:19;11.10;;;7.30;;
12900;SDS011;6518;50.930;5.344;2023-04-03T03:58:45;11.17;;;7.77;;
12900;SDS011;6518;50.930;5.344;2023-04-03T04:01:12;10.63;;;7.13;;
12900;SDS011;6518;50.930;5.344;2023-04-03T04:03:40;8.53;;;7.67;;
12900;SDS011;6518;50.930;5.344;2023-04-03T04:06:07;9.70;;;7.53;;
12900;SDS011;6518;50.930;5.344;2023-04-03T04:08:36;9.87;;;7.63;;
12900;SDS011;6518;50.930;5.344;2023-04-03T04:11:03;10.20;;;7.20;;
12900;SDS011;6518;50.930;5.344;2023-04-03T04:13:29;18.80;;;9.77;;
12900;SDS011;6518;50.930;5.344;2023-04-03T04:15:56;10.80;;;7.77;;
12900;SDS011;6518;50.930;5.344;2023-04-03T04:18:23;8.43;;;7.60;;
12900;SDS011;6518;50.930;5.344;2023-04-03T04:20:50;12.43;;;8.10;;
12900;SDS011;6518;50.930;5.344;2023-04-03T04:23:18;11.47;;;7.53;;
12900;SDS011;6518;50.930;5.344;2023-04-03T04:25:46;8.73;;;7.83;;
12900;SDS011;6518;50.930;5.344;2023-04-03T04:28:13;9.17;;;7.80;;
12900;SDS011;6518;50.930;5.344;2023-04-03T04:30:41;10.33;;;7.70;;
12900;SDS011;6518;50.930;5.344;2023-04-03T04:33:08;10.43;;;8.50;;
12900;SDS011;6518;50.930;5.344;2023-04-03T04:35:35;10.60;;;8.40;;
12900;SDS011;6518;50.930;5.344;2023-04-03T04:38:02;9.80;;;7.93;;
12900;SDS011;6518;50.930;5.344;2023-04-03T04:40:29;10.27;;;8.60;;
12900;SDS011;6518;50.930;5.344;2023-04-03T04:42:57;12.23;;;8.70;;
12900;SDS011;6518;50.930;5.344;2023-04-03T04:45:24;11.23;;;9.03;;
12900;SDS011;6518;50.930;5.344;2023-04-03T04:47:51;9.97;;;8.63;;
12900;SDS011;6518;50.930;5.344;2023-04-03T04:50:20;10.87;;;9.20;;
12900;SDS011;6518;50.930;5.344;2023-04-03T04:52:47;11.87;;;9.63;;
12900;SDS011;6518;50.930;5.344;2023-04-03T04:55:14;11.07;;;9.53;;
12900;SDS011;6518;50.930;5.344;2023-04-03T04:57:41;13.50;;;10.13;;
12900;SDS011;6518;50.930;5.344;2023-04-03T05:00:10;13.73;;;10.10;;
12900;SDS011;6518;50.930;5.344;2023-04-03T05:02:38;13.50;;;9.63;;
12900;SDS011;6518;50.930;5.344;2023-04-03T05:05:05;15.60;;;10.17;;
12900;SDS011;6518;50.930;5.344;2023-04-03T05:07:32;11.80;;;9.47;;
12900;SDS011;6518;50.930;5.344;2023-04-03T05:10:00;15.97;;;10.63;;
12900;SDS011;6518;50.930;5.344;2023-04-03T05:12:28;14.40;;;10.37;;
12900;SDS011;6518;50.930;5.344;2023-04-03T05:14:55;11.50;;;10.10;;
12900;SDS011;6518;50.930;5.344;2023-04-03T05:17:25;12.20;;;10.03;;
12900;SDS011;6518;50.930;5.344;2023-04-03T05:19:55;10.70;;;9.60;;
12900;SDS011;6518;50.930;5.344;2023-04-03T05:22:24;13.33;;;10.00;;
12900;SDS011;6518;50.930;5.344;2023-04-03T05:24:51;11.60;;;10.03;;
12900;SDS011;6518;50.930;5.344;2023-04-03T05:27:18;11.80;;;9.90;;
12900;SDS011;6518;50.930;5.344;2023-04-03T05:29:44;13.23;;;10.63;;
12900;SDS011;6518;50.930;5.344;2023-04-03T05:32:11;15.03;;;11.00;;
12900;SDS011;6518;50.930;5.344;2023-04-03T05:34:39;15.67;;;11.80;;
12900;SDS011;6518;50.930;5.344;2023-04-03T05:37:06;16.77;;;11.90;;
12900;SDS011;6518;50.930;5.344;2023-04-03T05:39:33;16.27;;;10.83;;
12900;SDS011;6518;50.930;5.344;2023-04-03T05:42:00;16.77;;;11.40;;
12900;SDS011;6518;50.930;5.344;2023-04-03T05:44:26;13.47;;;11.33;;
12900;SDS011;6518;50.930;5.344;2023-04-03T05:46:53;15.30;;;11.03;;
12900;SDS011;6518;50.930;5.344;2023-04-03T05:49:20;14.33;;;10.10;;
12900;SDS011;6518;50.930;5.344;2023-04-03T05:51:48;12.60;;;11.03;;
12900;SDS011;6518;50.930;5.344;2023-04-03T05:54:17;12.53;;;10.27;;
12900;SDS011;6518;50.930;5.344;2023-04-03T05:56:48;16.43;;;10.73;;
12900;SDS011;6518;50.930;5.344;2023-04-03T05:59:14;14.40;;;11.17;;
12900;SDS011;6518;50.930;5.344;2023-04-03T06:01:41;12.50;;;10.50;;
12900;SDS011;6518;50.930;5.344;2023-04-03T06:04:08;14.20;;;10.77;;
12900;SDS011;6518;50.930;5.344;2023-04-03T06:06:46;14.07;;;10.10;;
12900;SDS011;6518;50.930;5.344;2023-04-03T06:09:15;14.23;;;9.93;;
12900;SDS011;6518;50.930;5.344;2023-04-03T06:11:43;11.57;;;9.03;;
12900;SDS011;6518;50.930;5.344;2023-04-03T06:14:11;14.10;;;8.73;;
12900;SDS011;6518;50.930;5.344;2023-04-03T06:16:38;11.27;;;8.43;;
12900;SDS011;6518;50.930;5.344;2023-04-03T06:19:05;10.70;;;8.50;;
12900;SDS011;6518;50.930;5.344;2023-04-03T06:21:32;10.50;;;8.27;;
12900;SDS011;6518;50.930;5.344;2023-04-03T06:24:00;11.10;;;8.17;;
12900;SDS011;6518;50.930;5.344;2023-04-03T06:26:29;10.60;;;7.53;;
12900;SDS011;6518;50.930;5.344;2023-04-03T06:28:56;11.23;;;7.93;;
12900;SDS011;6518;50.930;5.344;2023-04-03T06:31:23;9.73;;;7.20;;
12900;SDS011;6518;50.930;5.344;2023-04-03T06:33:50;11.73;;;6.87;;
12900;SDS011;6518;50.930;5.344;2023-04-03T06:36:17;9.87;;;6.37;;
12900;SDS011;6518;50.930;5.344;2023-04-03T06:38:46;9.80;;;6.33;;
12900;SDS011;6518;50.930;5.344;2023-04-03T06:41:13;8.23;;;6.43;;
12900;SDS011;6518;50.930;5.344;2023-04-03T06:43:42;8.47;;;6.40;;
12900;SDS011;6518;50.930;5.344;2023-04-03T06:46:12;9.07;;;6.03;;
12900;SDS011;6518;50.930;5.344;2023-04-03T06:48:41;7.47;;;5.30;;
12900;SDS011;6518;50.930;5.344;2023-04-03T06:51:11;7.57;;;5.70;;
12900;SDS011;6518;50.930;5.344;2023-04-03T06:53:43;8.83;;;5.17;;
12900;SDS011;6518;50.930;5.344;2023-04-03T06:56:09;7.87;;;5.27;;
12900;SDS011;6518;50.930;5.344;2023-04-03T06:58:36;7.90;;;5.70;;
12900;SDS011;6518;50.930;5.344;2023-04-03T07:01:04;10.67;;;5.57;;
12900;SDS011;6518;50.930;5.344;2023-04-03T07:03:31;6.73;;;4.73;;
12900;SDS011;6518;50.930;5.344;2023-04-03T07:05:58;10.47;;;5.67;;
12900;SDS011;6518;50.930;5.344;2023-04-03T07:08:25;7.17;;;5.17;;
12900;SDS011;6518;50.930;5.344;2023-04-03T07:10:52;7.70;;;5.10;;
12900;SDS011;6518;50.930;5.344;2023-04-03T07:13:19;6.57;;;4.53;;
12900;SDS011;6518;50.930;5.344;2023-04-03T07:15:45;5.90;;;4.63;;
12900;SDS011;6518;50.930;5.344;2023-04-03T07:18:14;9.63;;;4.60;;
12900;SDS011;6518;50.930;5.344;2023-04-03T07:20:42;8.37;;;4.97;;
12900;SDS011;6518;50.930;5.344;2023-04-03T07:23:09;6.33;;;4.83;;
12900;SDS011;6518;50.930;5.344;2023-04-03T07:25:36;7.10;;;4.60;;
12900;SDS011;6518;50.930;5.344;2023-04-03T07:28:03;8.93;;;4.70;;
12900;SDS011;6518;50.930;5.344;2023-04-03T07:30:30;6.23;;;4.67;;
12900;SDS011;6518;50.930;5.344;2023-04-03T07:32:57;9.30;;;5.13;;
12900;SDS011;6518;50.930;5.344;2023-04-03T07:35:25;8.83;;;4.27;;
12900;SDS011;6518;50.930;5.344;2023-04-03T07:37:52;10.30;;;4.73;;
12900;SDS011;6518;50.930;5.344;2023-04-03T07:40:18;6.67;;;4.27;;
12900;SDS011;6518;50.930;5.344;2023-04-03T07:42:46;9.20;;;4.40;;
12900;SDS011;6518;50.930;5.344;2023-04-03T07:45:13;6.70;;;4.30;;
12900;SDS011;6518;50.930;5.344;2023-04-03T07:47:39;7.93;;;4.43;;
12900;SDS011;6518;50.930;5.344;2023-04-03T07:50:07;6.27;;;3.83;;
12900;SDS011;6518;50.930;5.344;2023-04-03T07:52:35;6.00;;;4.03;;
12900;SDS011;6518;50.930;5.344;2023-04-03T07:55:02;6.00;;;3.63;;
12900;SDS011;6518;50.930;5.344;2023-04-03T07:57:30;5.80;;;3.63;;
12900;SDS011;6518;50.930;5.344;2023-04-03T07:59:56;6.23;;;3.50;;
12900;SDS011;6518;50.930;5.344;2023-04-03T08:02:26;6.00;;;3.17;;
12900;SDS011;6518;50.930;5.344;2023-04-03T08:04:57;8.33;;;3.40;;
12900;SDS011;6518;50.930;5.344;2023-04-03T08:07:27;6.53;;;3.40;;
12900;SDS011;6518;50.930;5.344;2023-04-03T08:09:56;5.57;;;3.27;;
12900;SDS011;6518;50.930;5.344;2023-04-03T08:12:23;6.23;;;3.20;;
12900;SDS011;6518;50.930;5.344;2023-04-03T08:14:49;5.13;;;2.80;;
12900;SDS011;6518;50.930;5.344;2023-04-03T08:17:16;6.03;;;3.20;;
12900;SDS011;6518;50.930;5.344;2023-04-03T08:19:43;6.90;;;3.37;;
12900;SDS011;6518;50.930;5.344;2023-04-03T08:22:10;7.93;;;3.50;;
12900;SDS011;6518;50.930;5.344;2023-04-03T08:24:36;6.63;;;2.90;;
12900;SDS011;6518;50.930;5.344;2023-04-03T08:27:04;6.83;;;3.03;;
12900;SDS011;6518;50.930;5.344;2023-04-03T08:29:31;4.27;;;3.13;;
12900;SDS011;6518;50.930;5.344;2023-04-03T08:31:58;5.67;;;3.00;;
12900;SDS011;6518;50.930;5.344;2023-04-03T08:34:25;5.53;;;2.90;;
12900;SDS011;6518;50.930;5.344;2023-04-03T08:36:52;5.27;;;2.80;;
12900;SDS011;6518;50.930;5.344;2023-04-03T08:39:19;6.60;;;3.07;;
12900;SDS011;6518;50.930;5.344;2023-04-03T08:41:45;6.13;;;2.70;;
12900;SDS011;6518;50.930;5.344;2023-04-03T08:44:19;5.33;;;2.80;;
12900;SDS011;6518;50.930;5.344;2023-04-03T08:47:02;7.40;;;2.70;;
12900;SDS011;6518;50.930;5.344;2023-04-03T08:49:37;6.70;;;2.63;;
12900;SDS011;6518;50.930;5.344;2023-04-03T08:52:12;3.47;;;2.33;;
12900;SDS011;6518;50.930;5.344;2023-04-03T08:54:46;8.77;;;2.27;;
12900;SDS011;6518;50.930;5.344;2023-04-03T08:57:15;5.83;;;2.47;;
12900;SDS011;6518;50.930;5.344;2023-04-03T08:59:44;10.63;;;2.87;;
12900;SDS011;6518;50.930;5.344;2023-04-03T09:02:17;3.13;;;2.03;;
12900;SDS011;6518;50.930;5.344;2023-04-03T09:04:51;9.17;;;2.70;;
12900;SDS011;6518;50.930;5.344;2023-04-03T09:07:20;3.90;;;2.17;;
12900;SDS011;6518;50.930;5.344;2023-04-03T09:09:52;5.40;;;2.27;;
12900;SDS011;6518;50.930;5.344;2023-04-03T09:12:21;4.17;;;2.13;;
12900;SDS011;6518;50.930;5.344;2023-04-03T09:14:55;7.10;;;2.33;;
12900;SDS011;6518;50.930;5.344;2023-04-03T09:17:31;4.00;;;2.40;;
12900;SDS011;6518;50.930;5.344;2023-04-03T09:20:10;5.67;;;2.40;;
12900;SDS011;6518;50.930;5.344;2023-04-03T09:22:43;5.50;;;2.07;;
12900;SDS011;6518;50.930;5.344;2023-04-03T09:25:12;5.10;;;2.20;;
12900;SDS011;6518;50.930;5.344;2023-04-03T09:27:41;8.93;;;2.90;;
12900;SDS011;6518;50.930;5.344;2023-04-03T09:30:13;6.93;;;3.00;;
12900;SDS011;6518;50.930;5.344;2023-04-03T09:32:43;5.30;;;1.90;;
12900;SDS011;6518;50.930;5.344;2023-04-03T09:35:16;4.67;;;2.53;;
12900;SDS011;6518;50.930;5.344;2023-04-03T09:37:46;5.03;;;2.20;;
12900;SDS011;6518;50.930;5.344;2023-04-03T09:40:28;4.70;;;2.20;;
12900;SDS011;6518;50.930;5.344;2023-04-03T09:43:00;3.10;;;1.60;;
12900;SDS011;6518;50.930;5.344;2023-04-03T09:45:30;3.67;;;1.97;;
12900;SDS011;6518;50.930;5.344;2023-04-03T09:48:05;4.10;;;1.97;;
12900;SDS011;6518;50.930;5.344;2023-04-03T09:50:34;6.03;;;2.00;;
12900;SDS011;6518;50.930;5.344;2023-04-03T09:53:04;4.77;;;2.30;;
12900;SDS011;6518;50.930;5.344;2023-04-03T09:55:33;7.43;;;2.70;;
12900;SDS011;6518;50.930;5.344;2023-04-03T09:58:22;5.17;;;2.57;;
12900;SDS011;6518;50.930;5.344;2023-04-03T10:00:55;5.63;;;2.10;;
12900;SDS011;6518;50.930;5.344;2023-04-03T10:03:24;6.23;;;2.83;;
12900;SDS011;6518;50.930;5.344;2023-04-03T10:05:53;5.97;;;2.27;;
12900;SDS011;6518;50.930;5.344;2023-04-03T10:08:23;4.97;;;2.40;;
12900;SDS011;6518;50.930;5.344;2023-04-03T10:11:11;5.07;;;2.03;;
12900;SDS011;6518;50.930;5.344;2023-04-03T10:13:50;4.83;;;2.00;;
12900;SDS011;6518;50.930;5.344;2023-04-03T10:16:25;3.57;;;1.63;;
12900;SDS011;6518;50.930;5.344;2023-04-03T10:19:01;3.60;;;1.80;;
12900;SDS011;6518;50.930;5.344;2023-04-03T10:21:38;4.60;;;1.87;;
12900;SDS011;6518;50.930;5.344;2023-04-03T10:24:11;4.63;;;1.93;;
12900;SDS011;6518;50.930;5.344;2023-04-03T10:26:48;4.37;;;1.37;;
12900;SDS011;6518;50.930;5.344;2023-04-03T10:29:27;2.53;;;1.43;;
12900;SDS011;6518;50.930;5.344;2023-04-03T10:32:09;2.00;;;1.10;;
12900;SDS011;6518;50.930;5.344;2023-04-03T10:34:55;2.60;;;1.10;;
12900;SDS011;6518;50.930;5.344;2023-04-03T10:37:29;1.87;;;1.30;;
12900;SDS011;6518;50.930;5.344;2023-04-03T10:40:04;2.80;;;1.50;;
12900;SDS011;6518;50.930;5.344;2023-04-03T10:42:41;2.70;;;1.67;;
12900;SDS011;6518;50.930;5.344;2023-04-03T10:45:19;3.90;;;1.80;;
12900;SDS011;6518;50.930;5.344;2023-04-03T10:47:54;3.47;;;1.50;;
12900;SDS011;6518;50.930;5.344;2023-04-03T10:50:30;2.67;;;1.10;;
12900;SDS011;6518;50.930;5.344;2023-04-03T10:53:04;3.57;;;1.20;;
12900;SDS011;6518;50.930;5.344;2023-04-03T10:55:39;2.17;;;1.10;;
12900;SDS011;6518;50.930;5.344;2023-04-03T10:58:12;3.00;;;1.10;;
12900;SDS011;6518;50.930;5.344;2023-04-03T11:00:47;3.73;;;1.30;;
12900;SDS011;6518;50.930;5.344;2023-04-03T11:03:22;2.23;;;1.00;;
12900;SDS011;6518;50.930;5.344;2023-04-03T11:05:56;2.17;;;1.13;;
12900;SDS011;6518;50.930;5.344;2023-04-03T11:08:26;4.77;;;1.20;;
12900;SDS011;6518;50.930;5.344;2023-04-03T11:11:00;2.97;;;1.03;;
12900;SDS011;6518;50.930;5.344;2023-04-03T11:13:38;2.27;;;1.13;;
12900;SDS011;6518;50.930;5.344;2023-04-03T11:16:09;2.80;;;1.07;;
12900;SDS011;6518;50.930;5.344;2023-04-03T11:18:44;1.83;;;1.10;;
12900;SDS011;6518;50.930;5.344;2023-04-03T11:21:17;1.90;;;1.00;;
12900;SDS011;6518;50.930;5.344;2023-04-03T11:23:47;2.27;;;1.40;;
12900;SDS011;6518;50.930;5.344;2023-04-03T11:26:16;3.23;;;1.10;;
12900;SDS011;6518;50.930;5.344;2023-04-03T11:28:45;2.17;;;0.97;;
12900;SDS011;6518;50.930;5.344;2023-04-03T11:31:27;2.87;;;1.30;;
12900;SDS011;6518;50.930;5.344;2023-04-03T11:34:08;1.77;;;0.90;;
12900;SDS011;6518;50.930;5.344;2023-04-03T11:36:53;2.43;;;1.23;;
12900;SDS011;6518;50.930;5.344;2023-04-03T11:39:23;2.60;;;0.97;;
12900;SDS011;6518;50.930;5.344;2023-04-03T11:41:53;5.00;;;1.00;;
12900;SDS011;6518;50.930;5.344;2023-04-03T11:44:33;2.07;;;1.10;;
12900;SDS011;6518;50.930;5.344;2023-04-03T11:47:02;3.60;;;1.30;;
12900;SDS011;6518;50.930;5.344;2023-04-03T11:58:21;3.70;;;1.30;;
12900;SDS011;6518;50.930;5.344;2023-04-03T12:00:50;2.97;;;1.00;;
12900;SDS011;6518;50.930;5.344;2023-04-03T12:06:49;4.60;;;1.43;;
12900;SDS011;6518;50.930;5.344;2023-04-03T12:09:29;3.13;;;1.47;;
12900;SDS011;6518;50.930;5.344;2023-04-03T12:12:01;4.60;;;1.67;;
12900;SDS011;6518;50.930;5.344;2023-04-03T12:14:50;4.93;;;1.80;;
12900;SDS011;6518;50.930;5.344;2023-04-03T12:17:20;4.30;;;1.47;;
12900;SDS011;6518;50.930;5.344;2023-04-03T12:19:51;2.77;;;1.20;;
12900;SDS011;6518;50.930;5.344;2023-04-03T12:22:19;2.97;;;1.37;;
12900;SDS011;6518;50.930;5.344;2023-04-03T12:24:48;3.13;;;1.30;;
12900;SDS011;6518;50.930;5.344;2023-04-03T12:27:19;9.00;;;1.50;;
12900;SDS011;6518;50.930;5.344;2023-04-03T12:29:53;2.97;;;1.40;;
12900;SDS011;6518;50.930;5.344;2023-04-03T12:32:26;2.97;;;1.50;;
12900;SDS011;6518;50.930;5.344;2023-04-03T12:35:14;5.67;;;1.50;;
12900;SDS011;6518;50.930;5.344;2023-04-03T12:41:04;3.43;;;1.33;;
12900;SDS011;6518;50.930;5.344;2023-04-03T12:43:49;8.10;;;4.20;;
12900;SDS011;6518;50.930;5.344;2023-04-03T12:46:24;3.80;;;1.67;;
12900;SDS011;6518;50.930;5.344;2023-04-03T12:48:59;1.57;;;1.20;;
12900;SDS011;6518;50.930;5.344;2023-04-03T12:51:27;4.07;;;1.83;;
12900;SDS011;6518;50.930;5.344;2023-04-03T12:54:01;3.07;;;1.30;;
12900;SDS011;6518;50.930;5.344;2023-04-03T12:56:32;2.90;;;1.43;;
12900;SDS011;6518;50.930;5.344;2023-04-03T12:59:12;2.80;;;1.60;;
12900;SDS011;6518;50.930;5.344;2023-04-03T13:01:42;2.63;;;1.53;;
12900;SDS011;6518;50.930;5.344;2023-04-03T13:04:09;3.63;;;1.40;;
12900;SDS011;6518;50.930;5.344;2023-04-03T13:06:38;5.20;;;1.70;;
12900;SDS011;6518;50.930;5.344;2023-04-03T13:09:14;5.70;;;1.77;;
12900;SDS011;6518;50.930;5.344;2023-04-03T13:11:48;3.57;;;1.87;;
12900;SDS011;6518;50.930;5.344;2023-04-03T13:14:17;3.77;;;1.90;;
12900;SDS011;6518;50.930;5.344;2023-04-03T13:16:52;3.07;;;1.70;;
12900;SDS011;6518;50.930;5.344;2023-04-03T13:19:19;2.70;;;1.40;;
12900;SDS011;6518;50.930;5.344;2023-04-03T13:21:48;3.37;;;1.60;;
12900;SDS011;6518;50.930;5.344;2023-04-03T13:24:18;5.60;;;2.50;;
12900;SDS011;6518;50.930;5.344;2023-04-03T13:26:47;4.60;;;2.47;;
12900;SDS011;6518;50.930;5.344;2023-04-03T13:29:19;2.73;;;1.70;;
12900;SDS011;6518;50.930;5.344;2023-04-03T13:31:51;3.30;;;1.70;;
12900;SDS011;6518;50.930;5.344;2023-04-03T13:34:21;3.80;;;2.00;;
12900;SDS011;6518;50.930;5.344;2023-04-03T13:36:55;3.57;;;1.53;;
12900;SDS011;6518;50.930;5.344;2023-04-03T13:39:24;3.07;;;1.70;;
12900;SDS011;6518;50.930;5.344;2023-04-03T13:41:55;3.53;;;1.90;;
12900;SDS011;6518;50.930;5.344;2023-04-03T13:44:28;4.07;;;2.07;;
12900;SDS011;6518;50.930;5.344;2023-04-03T13:46:57;4.20;;;2.17;;
12900;SDS011;6518;50.930;5.344;2023-04-03T13:49:29;4.10;;;1.77;;
12900;SDS011;6518;50.930;5.344;2023-04-03T13:52:01;3.37;;;1.80;;
12900;SDS011;6518;50.930;5.344;2023-04-03T13:54:49;4.00;;;1.77;;
12900;SDS011;6518;50.930;5.344;2023-04-03T13:57:20;3.13;;;1.53;;
12900;SDS011;6518;50.930;5.344;2023-04-03T13:59:47;3.40;;;1.70;;
12900;SDS011;6518;50.930;5.344;2023-04-03T14:02:16;3.83;;;1.77;;
12900;SDS011;6518;50.930;5.344;2023-04-03T14:04:47;3.90;;;1.97;;
12900;SDS011;6518;50.930;5.344;2023-04-03T14:07:18;2.70;;;1.80;;
12900;SDS011;6518;50.930;5.344;2023-04-03T14:09:46;3.07;;;1.67;;
12900;SDS011;6518;50.930;5.344;2023-04-03T14:12:15;3.83;;;1.50;;
12900;SDS011;6518;50.930;5.344;2023-04-03T14:14:46;4.20;;;1.77;;
12900;SDS011;6518;50.930;5.344;2023-04-03T14:17:13;8.10;;;3.90;;
12900;SDS011;6518;50.930;5.344;2023-04-03T14:19:42;3.93;;;2.13;;
12900;SDS011;6518;50.930;5.344;2023-04-03T14:22:12;2.93;;;1.67;;
12900;SDS011;6518;50.930;5.344;2023-04-03T14:24:41;3.60;;;1.77;;
12900;SDS011;6518;50.930;5.344;2023-04-03T14:27:11;3.93;;;1.83;;
12900;SDS011;6518;50.930;5.344;2023-04-03T14:29:42;2.47;;;1.63;;
12900;SDS011;6518;50.930;5.344;2023-04-03T14:32:12;2.53;;;1.40;;
12900;SDS011;6518;50.930;5.344;2023-04-03T14:34:41;2.40;;;1.63;;
12900;SDS011;6518;50.930;5.344;2023-04-03T14:37:10;3.87;;;1.50;;
12900;SDS011;6518;50.930;5.344;2023-04-03T14:39:38;4.50;;;1.67;;
12900;SDS011;6518;50.930;5.344;2023-04-03T14:42:05;2.77;;;1.53;;
12900;SDS011;6518;50.930;5.344;2023-04-03T14:44:36;4.90;;;1.50;;
12900;SDS011;6518;50.930;5.344;2023-04-03T14:47:03;4.10;;;1.50;;
12900;SDS011;6518;50.930;5.344;2023-04-03T14:49:31;3.20;;;1.73;;
12900;SDS011;6518;50.930;5.344;2023-04-03T14:51:58;3.53;;;1.60;;
12900;SDS011;6518;50.930;5.344;2023-04-03T14:54:25;4.30;;;1.63;;
12900;SDS011;6518;50.930;5.344;2023-04-03T14:56:52;3.07;;;1.50;;
12900;SDS011;6518;50.930;5.344;2023-04-03T14:59:21;7.40;;;2.90;;
12900;SDS011;6518;50.930;5.344;2023-04-03T15:01:48;4.90;;;1.97;;
12900;SDS011;6518;50.930;5.344;2023-04-03T15:04:16;4.73;;;1.60;;
12900;SDS011;6518;50.930;5.344;2023-04-03T15:06:45;2.90;;;1.50;;
12900;SDS011;6518;50.930;5.344;2023-04-03T15:09:18;6.50;;;1.60;;
12900;SDS011;6518;50.930;5.344;2023-04-03T15:11:46;4.70;;;1.60;;
12900;SDS011;6518;50.930;5.344;2023-04-03T15:14:14;4.00;;;2.10;;
12900;SDS011;6518;50.930;5.344;2023-04-03T15:16:40;2.73;;;1.50;;
12900;SDS011;6518;50.930;5.344;2023-04-03T15:19:07;4.20;;;1.83;;
12900;SDS011;6518;50.930;5.344;2023-04-03T15:21:34;2.33;;;1.50;;
12900;SDS011;6518;50.930;5.344;2023-04-03T15:24:03;4.30;;;1.40;;
12900;SDS011;6518;50.930;5.344;2023-04-03T15:26:30;4.43;;;1.47;;
12900;SDS011;6518;50.930;5.344;2023-04-03T15:28:57;2.47;;;1.70;;
12900;SDS011;6518;50.930;5.344;2023-04-03T15:31:24;3.20;;;1.90;;